Forecasts are only available for sites displaying the forecast symbol.

Some water levels are actually in metres AHD (Australian Height Datum), click individual sites for more details.

Scroll for more >

River gauges, storages, and weirs in the Murray–Darling Basin

Type Locationsort descending River Water level Flow Volume Release Water temp Salinity Rainfall
River Gauge Albury (Union Bridge) Murray 1.52 m 24/04/2019 18:00 Not measured Not measured Not measured 19.3°C 24/04/2019 18:00 58.7 μS/cm 24/04/2019 18:00 Not measured Full data
River Gauge Balranald Murrumbidgee 0.46 m 24/04/2019 17:45 200 ML/Day 24/04/2019 17:45 Not measured Not measured 18.7°C 24/04/2019 17:45 158.6 μS/cm 24/04/2019 17:45 Not measured Full data
River Gauge Bandiana Kiewa 0.78 m 24/04/2019 17:45 237 ML/Day 24/04/2019 17:45 Not measured Not measured 19.1°C 24/04/2019 17:45 35.8 μS/cm 24/04/2019 17:45 Not measured Full data
River Gauge Barmah Choke Murray 2.37 m 24/04/2019 17:45 6718 ML/Day 24/04/2019 17:45 Not measured Not measured Not measured Not measured Not measured Full data
River Gauge Biggara Murray 0.26 m 24/04/2019 18:00 206 ML/Day 24/04/2019 18:00 Not measured Not measured 15.8°C 24/04/2019 18:00 51.4 μS/cm 24/04/2019 18:00 0.0 mm 24/04/2019 9:00 Full data
River Gauge Bringenbrong Bridge Murray 0.91 m 24/04/2019 18:00 789 ML/Day 24/04/2019 18:00 Not measured Not measured Not measured Not measured Not measured Full data
River Gauge Burtundy Darling 0.5 m 24/04/2019 17:45 1 ML/Day 24/04/2019 17:45 Not measured Not measured 19.3°C 24/04/2019 17:45 7.3 μS/cm 9/04/2019 15:15 Not measured Full data
River Gauge Colemans Mitta 1.09 m 24/04/2019 18:15 393 ML/Day 24/04/2019 18:15 Not measured Not measured 15.1°C 24/04/2019 17:45 51.7 μS/cm 24/04/2019 17:45 Not measured Full data
River Gauge Colignan Murray 1.69 m 24/04/2019 17:45 5075 ML/Day 24/04/2019 17:45 Not measured Not measured 18.6°C 24/04/2019 17:45 84.5 μS/cm 24/04/2019 17:45 Not measured Full data
River Gauge Corowa Murray 2.21 m 24/04/2019 18:00 9218 ML/Day 24/04/2019 18:00 Not measured Not measured 19.6°C 24/04/2019 18:00 56.4 μS/cm 24/04/2019 18:00 Not measured Full data
Storage Dartmouth Dam Mitta 461.47 m 24/04/2019 18:15 Not measured 2446 GL 24/04/2019 18:15 Not measured Not measured Not measured Not measured Full data
River Gauge Doctors Point Murray 2.52 m 24/04/2019 18:00 9808 ML/Day 24/04/2019 18:00 Not measured Not measured 19.5°C 24/04/2019 18:00 58.4 μS/cm 24/04/2019 18:00 Not measured Full data
River Gauge Echuca Wharf Murray 86.86 m 24/04/2019 16:45 Not measured Not measured Not measured Not measured Not measured Not measured Full data
River Gauge Edward Escape Wakool 0.54 m 24/04/2019 17:45 334 ML/Day 24/04/2019 17:45 Not measured Not measured 20.2°C 24/04/2019 17:45 59.7 μS/cm 24/04/2019 17:45 Not measured Full data
River Gauge Edward River Offtake Murray 2.38 m 24/04/2019 17:45 1533 ML/Day 24/04/2019 17:45 Not measured Not measured 19.7°C 24/04/2019 17:45 39.1 μS/cm 24/04/2019 17:45 Not measured Full data
Weirs Euston Weir Downstream Murray 43.04 m 24/04/2019 17:45 5731 ML/Day 24/04/2019 17:45 Not measured Not measured 18.8°C 24/04/2019 17:45 84.3 μS/cm 24/04/2019 17:45 Not measured Full data
Weirs Euston Weir Upstream Murray 47.62 m 24/04/2019 8:00 Not measured 37 GL 24/04/2019 7:45 Not measured Not measured Not measured 0.0 mm 21/02/2019 9:00 Full data
River Gauge Flow to South Australia Murray Not measured Not measured Not measured 4905.0 ML/d24/04/2019 7:45 Not measured Not measured Not measured Full data
River Gauge Frenchman Creek Murray 27.45 m 24/04/2019 7:45 Not measured Not measured 720.0 ML/d24/04/2019 7:45 Not measured Not measured Not measured Full data
River Gauge Gulpa Creek Offtake Murray 2.47 m 24/04/2019 17:45 326 ML/Day 24/04/2019 17:45 Not measured Not measured Not measured Not measured Not measured Full data
River Gauge Hinnomunjie Mitta 0.51 m 24/04/2019 17:45 192 ML/Day 24/04/2019 17:45 Not measured Not measured 15.6°C 24/04/2019 17:45 34.9 μS/cm 24/04/2019 17:45 0.0 mm 24/04/2019 9:00 Full data
Storage Hume Dam Murray 172.76 m 24/04/2019 18:00 Not measured 439 GL 24/04/2019 18:00 10182.0 ML/d24/04/2019 16:45 Not measured Not measured 0.0 mm 24/04/2019 9:00 Full data
River Gauge Jingellic Murray 1.11 m 24/04/2019 17:45 1054 ML/Day 24/04/2019 17:45 Not measured Not measured 18.8°C 24/04/2019 17:45 34.3 μS/cm 24/04/2019 17:45 0.2 mm 24/04/2019 9:00 Full data
River Gauge Kerang Loddon 0.43 m 24/04/2019 17:45 298 ML/Day 24/04/2019 17:45 Not measured Not measured 18.5°C 24/04/2019 17:45 83.1 μS/cm 24/04/2019 17:45 Not measured Full data
River Gauge Lake Albert Murray 0.55 m 24/04/2019 5:45 Not measured 237 GL 24/04/2019 5:45 Not measured Not measured Not measured Not measured Full data
River Gauge Lake Alexandrina Murray 0.51 m 24/04/2019 5:45 Not measured 1455 GL 24/04/2019 5:45 Not measured Not measured 1022.9 μS/cm 24/04/2019 16:45 Not measured Full data
Storage Lake Victoria Murray 22.19 m 24/04/2019 16:45 Not measured 173 GL 24/04/2019 16:45 Not measured 17.3°C 24/04/2019 16:45 161.6 μS/cm 24/04/2019 16:45 Not measured Full data
Weirs Lock 1 Downstream Murray 0.56 m 24/04/2019 16:45 Not measured Not measured 3830.2 ML/d24/04/2019 7:45 Not measured Not measured Not measured Full data
Weirs Lock 1 Upstream Murray 3.23 m 24/04/2019 16:45 Not measured Not measured Not measured 18.4°C 24/04/2019 16:45 204.0 μS/cm 24/04/2019 16:45 Not measured Full data
Weirs Lock 2 Downstream Murray 3.35 m 24/04/2019 16:45 Not measured Not measured Not measured Not measured Not measured Not measured Full data
Weirs Lock 2 Upstream Murray 6.16 m 24/04/2019 16:45 Not measured Not measured Not measured 18.8°C 24/04/2019 16:45 205.0 μS/cm 24/04/2019 16:45 Not measured Full data
Weirs Lock 3 Downstream Murray 6.31 m 24/04/2019 16:45 Not measured Not measured Not measured Not measured Not measured Not measured Full data
Weirs Lock 3 Upstream Murray 9.83 m 24/04/2019 16:45 Not measured Not measured Not measured Not measured Not measured Not measured Full data
Weirs Lock 4 Downstream Murray 10.33 m 24/04/2019 16:45 Not measured Not measured Not measured Not measured Not measured Not measured Full data
Weirs Lock 4 Upstream Murray 13.24 m 24/04/2019 16:45 Not measured Not measured Not measured Not measured Not measured Not measured Full data
Weirs Lock 5 Downstream Murray 13.34 m 24/04/2019 16:45 Not measured Not measured Not measured Not measured Not measured Not measured Full data
Weirs Lock 5 Upstream Murray 16.3 m 24/04/2019 16:45 Not measured Not measured Not measured 18.6°C 24/04/2019 16:45 152.2 μS/cm 24/04/2019 16:45 Not measured Full data
Weirs Lock 6 Downstream Murray 16.33 m 24/04/2019 16:45 Not measured Not measured Not measured Not measured Not measured Not measured Full data
Weirs Lock 6 Upstream Murray 19.24 m 24/04/2019 16:45 Not measured Not measured Not measured 18.8°C 24/04/2019 16:45 139.4 μS/cm 24/04/2019 16:45 Not measured Full data
Weirs Lock 7 Downstream Murray 20.14 m 24/04/2019 16:45 Not measured Not measured Not measured Not measured Not measured Not measured Full data
Weirs Lock 7 Upstream Murray 21.28 m 24/04/2019 16:45 Not measured Not measured Not measured 19.1°C 24/04/2019 16:45 116.7 μS/cm 24/04/2019 16:45 Not measured Full data
Weirs Lock 8 Upstream Murray 23.65 m 24/04/2019 16:45 Not measured Not measured Not measured 19.5°C 24/04/2019 16:45 112.5 μS/cm 24/04/2019 16:45 Not measured Full data
Weirs Lock 9 Downstream Murray 23.73 m 24/04/2019 16:45 Not measured Not measured Not measured Not measured Not measured Not measured Full data
Weirs Lock 9 Upstream Murray 27.44 m 24/04/2019 16:45 Not measured Not measured Not measured 19.1°C 24/04/2019 16:45 106.2 μS/cm 24/04/2019 16:45 Not measured Full data
River Gauge McCoy Bridge Goulburn 1.5 m 24/04/2019 17:45 962 ML/Day 24/04/2019 17:45 Not measured Not measured 18.3°C 24/04/2019 17:45 64.5 μS/cm 24/04/2019 17:45 Not measured Full data
Storage Menindee Lakes Darling Not measured Not measured 17 GL 23/04/2019 7:45 Not measured Not measured Not measured Not measured Full data
Weirs Mildura Weir downstream Murray 30.92 m 24/04/2019 17:45 Not measured Not measured Not measured 19.8°C 24/04/2019 17:45 109.4 μS/cm 24/04/2019 17:45 Not measured Full data
River Gauge Morgan Downstream Murray Not measured Not measured Not measured 3259.5 ML/d24/04/2019 16:45 Not measured 220.9 μS/cm 24/04/2019 15:45 Not measured Full data
River Gauge Mulwala Canal Murray Not measured Not measured Not measured 1322.7 ML/d24/04/2019 8:45 Not measured Not measured Not measured Full data
River Gauge Mundoo Barrage Murray 0.55 m 24/04/2019 7:45 Not measured Not measured Not measured Not measured Not measured Not measured Full data
River Gauge Murray Bridge Murray 0.56 m 24/04/2019 16:45 Not measured Not measured Not measured 18.2°C 24/04/2019 16:45 249.8 μS/cm 24/04/2019 16:45 Not measured Full data
River Gauge Peechelba Ovens 126.13 m 24/04/2019 17:45 183 ML/Day 24/04/2019 17:45 Not measured Not measured 19.6°C 24/04/2019 17:45 63.9 μS/cm 24/04/2019 17:45 Not measured Full data
River Gauge Pinegrove Murray 0.99 m 24/04/2019 18:00 131 ML/Day 24/04/2019 18:00 Not measured Not measured 17.6°C 24/04/2019 18:00 110.4 μS/cm 24/04/2019 18:00 0.0 mm 24/04/2019 9:00 Full data
River Gauge Redcliffs Murray Not measured Not measured Not measured Not measured Not measured 108.4 μS/cm 24/04/2019 17:45 Not measured Full data
River Gauge Rochester Campaspe 1.68 m 24/04/2019 17:45 63 ML/Day 24/04/2019 17:45 Not measured Not measured 17.4°C 24/04/2019 17:45 601.7 μS/cm 24/04/2019 17:45 0.0 mm 24/04/2019 9:00 Full data
River Gauge Rufus River Murray 20.37 m 24/04/2019 7:45 Not measured Not measured 1636.0 ML/d24/04/2019 7:45 Not measured 166.6 μS/cm 24/04/2019 15:45 Not measured Full data
Weirs Steven's Weir Downstream Wakool 1.48 m 24/04/2019 8:00 1250 ML/Day 24/04/2019 8:00 Not measured Not measured 18.8°C 24/04/2019 8:00 52.9 μS/cm 24/04/2019 8:00 Not measured Full data
Weirs Steven's Weir Upstream Wakool 4.5 m 24/04/2019 17:45 Not measured Not measured Not measured Not measured Not measured Not measured Full data
River Gauge Stoney Crossing Murray 1.38 m 24/04/2019 17:45 393 ML/Day 24/04/2019 17:45 Not measured 380.7 ML/d24/04/2019 7:45 19.2°C 24/04/2019 17:45 221.4 μS/cm 24/04/2019 17:45 Not measured Full data
River Gauge Swan Hill Murray 1.17 m 24/04/2019 17:45 5728 ML/Day 24/04/2019 17:45 Not measured Not measured 18.6°C 24/04/2019 17:45 268.1 μS/cm 24/04/2019 17:45 Not measured Full data
River Gauge Tallandoon Mitta 1.41 m 24/04/2019 17:45 514 ML/Day 24/04/2019 17:45 Not measured Not measured 17.2°C 24/04/2019 17:45 51.4 μS/cm 24/04/2019 17:45 Not measured Full data
River Gauge Tauwitchere Barrage Murray 0.5 m 24/04/2019 16:45 Not measured Not measured Not measured Not measured Not measured Not measured Full data
River Gauge Tocumwal Murray 2.01 m 24/04/2019 17:45 8392 ML/Day 24/04/2019 17:45 Not measured Not measured 20.2°C 24/04/2019 17:45 54.9 μS/cm 24/04/2019 17:45 Not measured Full data
River Gauge Torrumbarry Headworks Murray 85.11 m 24/04/2019 17:45 Not measured Not measured 1961.5 ML/d24/04/2019 17:45 Not measured Not measured Not measured Full data
Weirs Torrumbarry Weir Downstream Murray 1.99 m 24/04/2019 17:45 5518 ML/Day 24/04/2019 17:45 Not measured Not measured 18.8°C 24/04/2019 17:45 71.4 μS/cm 24/04/2019 17:45 Not measured Full data
Weirs Torrumbarry Weir Upstream Murray 86.05 m 24/04/2019 17:30 Not measured 37 GL 24/04/2019 8:45 Not measured 18.7°C 24/04/2019 8:45 69.0 μS/cm 24/04/2019 12:45 0.0 mm 24/04/2019 9:00 Full data
River Gauge Wakool Canal Wakool 0.63 m 24/04/2019 17:45 Not measured Not measured 282.8 ML/d24/04/2019 8:45 Not measured Not measured Not measured Full data
River Gauge Wakool Junction Murray 2.7 m 24/04/2019 17:45 6485 ML/Day 24/04/2019 17:45 Not measured Not measured 18.6°C 24/04/2019 17:45 78.1 μS/cm 24/04/2019 17:45 Not measured Full data
River Gauge Weir 32 Upstream Darling 1.05 m 24/04/2019 17:45 2 ML/Day 24/04/2019 17:45 Not measured Not measured 19.9°C 24/04/2019 17:45 1250.2 μS/cm 24/04/2019 17:45 Not measured Full data
Weirs Wentworth Weir Murray 27.62 m 24/04/2019 17:45 Not measured Not measured 4562.0 ML/d24/04/2019 8:45 Not measured 106.0 μS/cm 24/04/2019 7:45 0.0 mm 31/01/2019 9:00 Full data
River Gauge Wilcania Darling -0.26 m 24/04/2019 17:45 1 ML/Day 24/04/2019 17:45 Not measured Not measured 21.5°C 24/04/2019 17:45 0.0 μS/cm 24/04/2019 17:45 Not measured Full data
River Gauge Yarrawonga Main Channel Murray 123.42 m 24/04/2019 17:45 Not measured Not measured 578.2 ML/d24/04/2019 17:45 Not measured Not measured Not measured Full data
Weirs Yarrawonga Weir Downstream Murray 1.38 m 24/04/2019 17:45 7975 ML/Day 24/04/2019 17:45 Not measured Not measured 19.7°C 24/04/2019 17:45 43.7 μS/cm 24/04/2019 17:45 Not measured Full data
Weirs Yarrawonga Weir Upstream Murray 124.81 m 24/04/2019 17:45 Not measured Not measured Not measured Not measured Not measured 0.0 mm 24/04/2019 9:00 Full data